createdAt,value
2018-01-08T00:00:11.142Z,96.60
2018-01-08T00:03:16.147Z,96.60
2018-01-08T00:06:21.422Z,96.80
2018-01-08T00:09:26.847Z,96.70
2018-01-08T00:12:32.388Z,96.30
2018-01-08T00:15:38.349Z,96.70
2018-01-08T00:18:43.944Z,96.60
2018-01-08T00:21:49.314Z,96.40
2018-01-08T00:24:54.171Z,96.60
2018-01-08T00:27:59.565Z,96.80
2018-01-08T00:31:06.550Z,96.70
2018-01-08T00:34:11.669Z,96.80
2018-01-08T00:37:16.888Z,96.70
2018-01-08T00:40:22.646Z,96.40
2018-01-08T00:43:27.476Z,97.00
2018-01-08T00:46:32.670Z,96.70
2018-01-08T00:49:39.607Z,96.40
2018-01-08T00:52:45.755Z,96.60
2018-01-08T00:55:51.062Z,96.40
2018-01-08T00:58:56.180Z,96.60
2018-01-08T01:02:02.594Z,96.90
2018-01-08T01:05:08.306Z,96.90
2018-01-08T01:08:13.226Z,96.80
2018-01-08T01:11:18.505Z,96.80
2018-01-08T01:14:24.467Z,96.70
2018-01-08T01:17:30.113Z,96.70
2018-01-08T01:20:34.814Z,96.80
2018-01-08T01:23:40.350Z,96.80
2018-01-08T01:26:46.901Z,97.20
2018-01-08T01:29:52.637Z,96.80
2018-01-08T01:32:58.182Z,96.70
2018-01-08T01:36:03.334Z,96.90
2018-01-08T01:39:09.033Z,96.90
2018-01-08T01:42:14.609Z,96.70
2018-01-08T01:45:19.985Z,96.80
2018-01-08T01:48:25.553Z,96.70
2018-01-08T01:51:31.118Z,96.90
2018-01-08T01:54:36.618Z,97.10
2018-01-08T01:57:42.858Z,97.10
2018-01-08T02:00:47.834Z,97.00
2018-01-08T02:03:53.074Z,97.00
2018-01-08T02:06:57.992Z,97.10
2018-01-08T02:10:02.851Z,96.90
2018-01-08T02:13:07.966Z,96.90
2018-01-08T02:16:13.677Z,96.90
2018-01-08T02:19:21.011Z,96.90
2018-01-08T02:22:26.813Z,96.90
2018-01-08T02:25:32.149Z,97.00
2018-01-08T02:28:38.329Z,97.20
2018-01-08T02:31:43.116Z,96.70
2018-01-08T02:34:48.250Z,97.10
2018-01-08T02:37:53.581Z,96.90
2018-01-08T02:40:58.631Z,96.70
2018-01-08T02:44:03.609Z,97.10
2018-01-08T02:47:10.270Z,96.90
2018-01-08T02:50:15.311Z,96.90
2018-01-08T02:53:20.911Z,96.90
2018-01-08T02:56:26.587Z,96.90
2018-01-08T02:59:31.409Z,96.90
2018-01-08T03:02:38.043Z,97.00
2018-01-08T03:05:43.663Z,96.90
2018-01-08T03:08:48.622Z,96.70
2018-01-08T03:11:54.693Z,96.90
2018-01-08T03:14:59.539Z,96.90
2018-01-08T03:18:05.258Z,97.10
2018-01-08T03:21:10.366Z,96.90
2018-01-08T03:24:15.790Z,96.90
2018-01-08T03:27:21.685Z,97.20
2018-01-08T03:30:26.835Z,97.20
2018-01-08T03:33:32.506Z,97.20
2018-01-08T03:36:38.518Z,97.30
2018-01-08T03:39:44.226Z,97.30
2018-01-08T03:42:50.441Z,97.20
2018-01-08T03:45:56.510Z,97.00
2018-01-08T03:49:01.388Z,97.00
2018-01-08T03:52:06.554Z,97.30
2018-01-08T03:55:15.154Z,97.10
2018-01-08T03:58:20.343Z,97.40
2018-01-08T04:01:25.479Z,97.20
2018-01-08T04:04:31.034Z,97.00
2018-01-08T04:07:38.954Z,97.00
2018-01-08T04:10:44.218Z,97.00
2018-01-08T04:13:52.026Z,97.40
2018-01-08T04:16:57.323Z,97.10
2018-01-08T04:20:02.237Z,97.10
2018-01-08T04:23:08.106Z,97.20
2018-01-08T04:26:13.299Z,97.20
2018-01-08T04:29:18.626Z,97.00
2018-01-08T04:32:23.602Z,97.10
2018-01-08T04:35:30.082Z,97.30
2018-01-08T04:38:35.747Z,97.30
2018-01-08T04:41:42.734Z,97.10
2018-01-08T04:44:47.434Z,97.10
2018-01-08T04:47:53.868Z,97.20
2018-01-08T04:50:59.078Z,97.20
2018-01-08T04:54:04.693Z,97.20
2018-01-08T04:57:11.034Z,97.00
2018-01-08T05:00:16.746Z,97.00
2018-01-08T05:03:22.401Z,97.30
2018-01-08T05:06:27.737Z,97.20
2018-01-08T05:09:32.793Z,97.10
2018-01-08T05:12:40.029Z,97.10
2018-01-08T05:15:45.369Z,97.10
2018-01-08T05:18:49.945Z,97.20
2018-01-08T05:21:55.691Z,96.90
2018-01-08T05:25:00.654Z,97.00
2018-01-08T05:28:06.274Z,97.00
2018-01-08T05:31:12.395Z,97.10
2018-01-08T05:34:18.390Z,96.90
2018-01-08T05:37:23.414Z,96.90
2018-01-08T05:40:28.726Z,97.20
2018-01-08T05:43:33.849Z,96.80
2018-01-08T05:46:40.726Z,96.90
2018-01-08T05:49:47.818Z,97.30
2018-01-08T05:52:52.878Z,97.10
2018-01-08T05:55:58.136Z,97.20
2018-01-08T05:59:04.144Z,97.30
2018-01-08T06:02:09.101Z,97.30
2018-01-08T06:05:15.498Z,97.40
2018-01-08T06:08:21.306Z,97.40
2018-01-08T06:11:26.685Z,97.40
2018-01-08T06:14:32.076Z,97.50
2018-01-08T06:17:39.466Z,97.30
2018-01-08T06:20:44.935Z,97.40
2018-01-08T06:23:51.097Z,97.30
2018-01-08T06:26:57.589Z,97.20
2018-01-08T06:30:03.202Z,97.30
2018-01-08T06:33:08.242Z,97.40
2018-01-08T06:36:13.401Z,97.60
2018-01-08T06:39:19.150Z,97.30
2018-01-08T06:42:25.822Z,97.50
2018-01-08T06:45:31.203Z,97.30
2018-01-08T06:48:36.670Z,97.40
2018-01-08T06:51:42.494Z,97.70
2018-01-08T06:54:48.381Z,97.70
2018-01-08T06:57:53.696Z,97.60
2018-01-08T07:00:58.453Z,97.70
2018-01-08T07:04:03.680Z,97.80
2018-01-08T07:07:09.285Z,97.80
2018-01-08T07:10:14.198Z,97.70
2018-01-08T07:13:18.918Z,97.80
2018-01-08T07:16:25.239Z,97.70
2018-01-08T07:19:30.966Z,97.70
2018-01-08T07:22:36.737Z,98.00
2018-01-08T07:25:41.849Z,97.70
2018-01-08T07:28:46.874Z,97.70
2018-01-08T07:31:51.798Z,97.80
2018-01-08T07:34:57.898Z,97.70
2018-01-08T07:38:02.997Z,97.70
2018-01-08T07:41:08.793Z,97.80
2018-01-08T07:44:15.182Z,97.80
2018-01-08T07:47:20.737Z,97.80
2018-01-08T07:50:27.096Z,97.90
2018-01-08T07:53:32.770Z,97.90
2018-01-08T07:56:37.674Z,97.80
2018-01-08T07:59:42.610Z,97.70
2018-01-08T08:02:47.543Z,97.80
2018-01-08T08:05:52.614Z,97.60
2018-01-08T08:08:57.770Z,97.90
2018-01-08T08:12:03.110Z,97.70
2018-01-08T08:15:09.410Z,97.70
2018-01-08T08:18:14.775Z,97.70
2018-01-08T08:21:20.131Z,97.60
2018-01-08T08:24:26.408Z,97.80
2018-01-08T08:27:31.990Z,97.80
2018-01-08T08:30:38.019Z,97.90
2018-01-08T08:33:43.449Z,98.00
2018-01-08T08:36:48.997Z,97.60
2018-01-08T08:39:55.666Z,97.80
2018-01-08T08:43:00.545Z,97.80
2018-01-08T08:46:06.334Z,97.70
2018-01-08T08:49:11.459Z,97.70
2018-01-08T08:52:16.922Z,97.70
2018-01-08T08:55:22.629Z,97.50
2018-01-08T08:58:28.541Z,97.60
2018-01-08T09:01:34.252Z,97.60
2018-01-08T09:04:39.927Z,97.60
2018-01-08T09:07:45.346Z,97.40
2018-01-08T09:10:51.703Z,97.40
2018-01-08T09:13:57.194Z,97.40
2018-01-08T09:17:02.985Z,97.20
2018-01-08T09:20:08.502Z,97.20
2018-01-08T09:23:13.278Z,97.30
2018-01-08T09:26:18.246Z,97.10
2018-01-08T09:29:24.638Z,96.90
2018-01-08T09:32:29.498Z,96.90
2018-01-08T09:35:35.093Z,97.20
2018-01-08T09:38:40.304Z,97.10
2018-01-08T09:41:45.779Z,96.80
2018-01-08T09:44:50.907Z,97.20
2018-01-08T09:47:55.896Z,96.70
2018-01-08T09:51:01.531Z,97.10
2018-01-08T09:54:07.950Z,96.80
2018-01-08T09:57:13.762Z,96.80
2018-01-08T10:00:20.250Z,97.00
2018-01-08T10:03:37.942Z,97.00
2018-01-08T10:06:54.858Z,96.80
2018-01-08T10:10:11.694Z,97.00
2018-01-08T10:13:29.514Z,96.60
2018-01-08T10:16:47.765Z,96.50
2018-01-08T10:20:13.363Z,96.50
2018-01-08T10:23:19.070Z,96.90
2018-01-08T10:26:24.257Z,96.80
2018-01-08T10:29:30.753Z,96.40
2018-01-08T10:32:36.442Z,96.50
2018-01-08T10:35:41.873Z,96.30
2018-01-08T10:38:47.114Z,96.30
2018-01-08T10:41:58.006Z,96.10
2018-01-08T10:45:09.745Z,96.50
2018-01-08T10:48:22.210Z,96.00
2018-01-08T10:51:34.735Z,96.50
2018-01-08T10:54:41.025Z,96.00
2018-01-08T10:57:47.258Z,96.10
2018-01-08T11:00:52.533Z,96.10
2018-01-08T11:04:04.123Z,96.00
2018-01-08T11:07:09.465Z,96.40
2018-01-08T11:10:14.458Z,96.50
2018-01-08T11:13:19.891Z,96.60
2018-01-08T11:16:25.157Z,95.90
2018-01-08T11:19:31.305Z,95.80
2018-01-08T11:22:36.972Z,95.80
2018-01-08T11:25:42.033Z,96.20
2018-01-08T11:28:46.894Z,96.20
2018-01-08T11:31:52.442Z,96.10
2018-01-08T11:34:57.902Z,95.90
2018-01-08T11:38:03.309Z,95.80
2018-01-08T11:41:08.717Z,96.30
2018-01-08T11:44:14.260Z,95.60
2018-01-08T11:47:19.289Z,95.70
2018-01-08T11:50:24.459Z,95.60
2018-01-08T11:53:29.948Z,95.80
2018-01-08T11:56:35.637Z,95.70
2018-01-08T11:59:41.150Z,95.40
2018-01-08T12:02:46.989Z,95.40
2018-01-08T12:05:52.035Z,95.20
2018-01-08T12:08:57.698Z,95.00
2018-01-08T12:12:03.482Z,95.00
2018-01-08T12:15:08.526Z,94.60
2018-01-08T12:18:13.702Z,95.30
2018-01-08T12:21:19.353Z,94.90
2018-01-08T12:24:24.633Z,94.80
2018-01-08T12:27:29.826Z,94.70
2018-01-08T12:30:35.478Z,94.80
2018-01-08T12:33:41.238Z,94.70
2018-01-08T12:36:46.611Z,94.80
2018-01-08T12:39:53.017Z,94.90
2018-01-08T12:42:58.814Z,94.70
2018-01-08T12:46:04.538Z,94.90
2018-01-08T12:49:09.663Z,94.90
2018-01-08T12:52:15.385Z,94.50
2018-01-08T12:55:21.197Z,95.20
2018-01-08T12:58:26.266Z,95.20
2018-01-08T13:01:31.592Z,94.60
2018-01-08T13:04:36.651Z,94.80
2018-01-08T13:07:42.709Z,94.60
2018-01-08T13:10:47.885Z,94.60
2018-01-08T13:13:52.849Z,95.50
2018-01-08T13:16:58.208Z,95.00
2018-01-08T13:20:03.699Z,94.60
2018-01-08T13:23:08.870Z,94.60
2018-01-08T13:26:13.687Z,94.70
2018-01-08T13:29:18.731Z,94.60
2018-01-08T13:32:24.151Z,94.40
2018-01-08T13:35:29.322Z,94.00
2018-01-08T13:38:35.379Z,94.80
2018-01-08T13:41:41.820Z,94.30
2018-01-08T13:44:47.370Z,94.30
2018-01-08T13:47:52.805Z,94.20
2018-01-08T13:50:58.714Z,94.30
2018-01-08T13:54:03.782Z,94.30
2018-01-08T13:57:08.974Z,94.30
2018-01-08T14:00:14.554Z,94.30
2018-01-08T14:03:20.343Z,94.30
2018-01-08T14:06:25.558Z,94.50
2018-01-08T14:09:30.286Z,94.40
2018-01-08T14:12:35.825Z,93.80
2018-01-08T14:15:41.830Z,94.30
2018-01-08T14:18:47.002Z,94.30
2018-01-08T14:21:52.393Z,94.50
2018-01-08T14:24:57.589Z,94.60
2018-01-08T14:28:03.318Z,94.80
2018-01-08T14:31:09.278Z,94.50
2018-01-08T14:34:14.993Z,94.50
2018-01-08T14:37:20.564Z,94.10
2018-01-08T14:40:26.262Z,94.10
2018-01-08T14:43:31.592Z,94.40
2018-01-08T14:46:37.438Z,94.70
2018-01-08T14:49:42.882Z,95.00
2018-01-08T14:52:49.234Z,94.80
2018-01-08T14:55:54.401Z,94.50
2018-01-08T14:59:00.314Z,95.30
2018-01-08T15:02:06.391Z,94.80
2018-01-08T15:05:13.012Z,94.40
2018-01-08T15:08:17.852Z,94.30
2018-01-08T15:11:22.894Z,94.60
2018-01-08T15:14:28.762Z,94.40
2018-01-08T15:17:34.493Z,94.40
2018-01-08T15:20:40.094Z,94.30
2018-01-08T15:23:45.430Z,94.90
2018-01-08T15:26:50.918Z,94.90
2018-01-08T15:29:57.107Z,95.10
2018-01-08T15:33:03.422Z,94.50
2018-01-08T15:36:09.181Z,94.50
2018-01-08T15:39:15.026Z,94.90
2018-01-08T15:42:20.721Z,95.10
2018-01-08T15:45:25.586Z,95.10
2018-01-08T15:48:30.342Z,94.50
2018-01-08T15:51:36.476Z,94.90
2018-01-08T15:54:42.737Z,94.90
2018-01-08T15:57:47.875Z,94.70
2018-01-08T16:00:53.766Z,95.10
2018-01-08T16:03:58.705Z,95.10
2018-01-08T16:07:04.253Z,95.00
2018-01-08T16:10:09.807Z,95.20
2018-01-08T16:13:15.435Z,95.20
2018-01-08T16:16:22.163Z,95.20
2018-01-08T16:19:29.563Z,95.40
2018-01-08T16:22:35.226Z,95.40
2018-01-08T16:25:40.254Z,95.30
2018-01-08T16:28:46.126Z,95.20
2018-01-08T16:31:52.095Z,95.10
2018-01-08T16:34:57.545Z,95.10
2018-01-08T16:38:02.864Z,95.40
2018-01-08T16:41:07.657Z,95.20
2018-01-08T16:44:12.722Z,94.70
2018-01-08T16:47:17.751Z,95.10
2018-01-08T16:50:22.869Z,95.00
2018-01-08T16:53:28.354Z,94.90
2018-01-08T16:56:33.131Z,95.30
2018-01-08T16:59:39.342Z,94.90
2018-01-08T17:02:44.977Z,95.30
2018-01-08T17:05:50.074Z,95.30
2018-01-08T17:08:55.856Z,95.40
2018-01-08T17:12:01.709Z,95.40
2018-01-08T17:15:06.941Z,95.30
2018-01-08T17:18:12.219Z,95.50
2018-01-08T17:21:17.375Z,95.50
2018-01-08T17:24:22.826Z,95.50
2018-01-08T17:27:27.862Z,95.50
2018-01-08T17:30:32.921Z,95.30
2018-01-08T17:33:38.753Z,95.80
2018-01-08T17:36:44.721Z,95.70
2018-01-08T17:39:49.611Z,95.60
2018-01-08T17:42:55.837Z,95.60
2018-01-08T17:46:00.833Z,95.50
2018-01-08T17:49:06.726Z,95.40
2018-01-08T17:52:11.978Z,95.40
2018-01-08T17:55:17.178Z,95.60
2018-01-08T17:58:23.017Z,95.40
2018-01-08T18:01:28.074Z,95.60
2018-01-08T18:04:33.641Z,95.60
2018-01-08T18:07:39.467Z,95.30
2018-01-08T18:10:44.969Z,95.60
2018-01-08T18:13:49.882Z,95.80
2018-01-08T18:16:55.134Z,95.70
2018-01-08T18:20:00.431Z,95.40
2018-01-08T18:23:05.886Z,95.50
2018-01-08T18:26:11.557Z,95.70
2018-01-08T18:29:16.429Z,95.70
2018-01-08T18:32:22.841Z,95.30
2018-01-08T18:35:29.206Z,95.50
2018-01-08T18:38:34.474Z,95.40
2018-01-08T18:41:40.111Z,95.20
2018-01-08T18:44:45.882Z,95.20
2018-01-08T18:47:51.957Z,95.10
2018-01-08T18:50:57.458Z,95.10
2018-01-08T18:54:03.476Z,95.20
2018-01-08T18:57:08.154Z,95.40
2018-01-08T19:00:13.441Z,95.20
2018-01-08T19:03:18.362Z,95.20
2018-01-08T19:06:23.504Z,95.40
2018-01-08T19:09:30.004Z,95.40
2018-01-08T19:12:36.195Z,95.40
2018-01-08T19:15:41.158Z,95.40
2018-01-08T19:18:46.601Z,95.30
2018-01-08T19:21:51.915Z,95.40
2018-01-08T19:24:56.949Z,95.40
2018-01-08T19:28:02.617Z,95.30
2018-01-08T19:31:07.713Z,95.20
2018-01-08T19:34:12.944Z,95.10
2018-01-08T19:37:18.627Z,95.30
2018-01-08T19:40:24.548Z,95.60
2018-01-08T19:43:29.490Z,95.60
2018-01-08T19:46:34.459Z,95.50
2018-01-08T19:49:40.454Z,95.40
2018-01-08T19:52:45.263Z,95.40
2018-01-08T19:55:50.854Z,95.30
2018-01-08T19:58:56.378Z,95.40
2018-01-08T20:02:01.777Z,95.30
2018-01-08T20:05:07.642Z,95.50
2018-01-08T20:08:12.966Z,95.40
2018-01-08T20:11:19.474Z,95.60
2018-01-08T20:14:25.202Z,95.30
2018-01-08T20:17:31.406Z,95.80
2018-01-08T20:20:36.330Z,95.60
2018-01-08T20:23:41.742Z,95.20
2018-01-08T20:26:46.774Z,95.40
2018-01-08T20:29:52.823Z,95.60
2018-01-08T20:32:58.597Z,95.80
2018-01-08T20:36:04.118Z,95.70
2018-01-08T20:39:08.978Z,95.60
2018-01-08T20:42:14.490Z,95.50
2018-01-08T20:45:20.070Z,95.60
2018-01-08T20:48:25.437Z,95.70
2018-01-08T20:51:30.758Z,95.80
2018-01-08T20:54:35.682Z,95.80
2018-01-08T20:57:40.437Z,95.30
2018-01-08T21:00:46.032Z,95.20
2018-01-08T21:03:51.526Z,95.70
2018-01-08T21:06:57.486Z,95.10
2018-01-08T21:10:03.248Z,95.10
2018-01-08T21:13:08.943Z,95.40
2018-01-08T21:16:14.390Z,95.30
2018-01-08T21:19:19.841Z,95.10
2018-01-08T21:22:25.190Z,95.30
2018-01-08T21:25:30.674Z,95.10
2018-01-08T21:28:36.138Z,95.30
2018-01-08T21:31:41.082Z,95.30
2018-01-08T21:34:46.710Z,95.30
2018-01-08T21:37:51.803Z,95.30
2018-01-08T21:40:56.990Z,95.40
2018-01-08T21:44:02.934Z,95.50
2018-01-08T21:47:08.511Z,95.40
2018-01-08T21:50:14.382Z,95.30
2018-01-08T21:53:20.050Z,95.30
2018-01-08T21:56:25.210Z,95.30
2018-01-08T21:59:31.183Z,95.60
2018-01-08T22:02:36.235Z,95.60
2018-01-08T22:05:42.638Z,95.70
2018-01-08T22:08:48.553Z,95.70
2018-01-08T22:11:53.750Z,95.80
2018-01-08T22:14:59.338Z,95.60
2018-01-08T22:18:04.753Z,95.60
2018-01-08T22:21:10.165Z,95.50
2018-01-08T22:24:23.382Z,95.60
2018-01-08T22:27:28.577Z,95.80
2018-01-08T22:30:34.250Z,96.20
2018-01-08T22:33:40.802Z,96.30
2018-01-08T22:36:46.070Z,96.00
2018-01-08T22:39:51.628Z,95.90
2018-01-08T22:42:57.602Z,95.90
2018-01-08T22:46:03.206Z,95.90
2018-01-08T22:49:08.603Z,95.80
2018-01-08T22:52:14.542Z,95.70
2018-01-08T22:55:19.753Z,95.70
2018-01-08T22:58:24.962Z,96.10
2018-01-08T23:01:29.955Z,95.90
2018-01-08T23:04:36.446Z,96.10
2018-01-08T23:07:41.812Z,96.10
2018-01-08T23:10:48.313Z,96.00
2018-01-08T23:13:54.481Z,96.20
2018-01-08T23:17:00.205Z,96.30
2018-01-08T23:20:06.297Z,96.50
2018-01-08T23:23:11.578Z,96.50
2018-01-08T23:26:16.718Z,96.40
2018-01-08T23:29:21.905Z,96.70
2018-01-08T23:32:27.577Z,96.90
2018-01-08T23:35:33.758Z,96.90
2018-01-08T23:38:39.050Z,96.90
2018-01-08T23:41:45.181Z,96.70
2018-01-08T23:44:51.386Z,96.50
2018-01-08T23:47:57.846Z,96.60
2018-01-08T23:51:03.301Z,96.60
2018-01-08T23:54:09.290Z,96.60
2018-01-08T23:57:14.861Z,96.90
